Columbia — WYR2092 — position and weather

sailwx.info

Track history (hours):
 
Tides and Currents Weather Stations Pressure Air Temp Water Temp Dewpoint Dewpoint Depression Visibility Wind Speed Wind Dir Waves Ship Positions

Columbia

Owner: ALASKA, STATE OF, ANCHORAGE, AK. More information available from US FCC via Universal Licensing System and Coast Guard Vessel Documentation Center.

Last reported at 2015-Aug-16 20:04 UTC. Time now 2015-Aug-31 15:19 UTC.
Position N 51°32' W 127°52'.
Warning: this ship's position is 14 days out of date.

Type: Ship. MMSI: 367144000.

Date/timePositionNaut miles runAvg speedWind from/ knotsBaromVisibWave heightAir tempDewpointWater temp
2015-Aug-16 20:04N 51°32' W 127°52'1018.7
2015-Aug-16 19:31N 51°22' W 127°52'1717.4
2015-Aug-16 18:33N 51°06' W 127°43'1818.3
2015-Aug-16 17:33N 50°54' W 127°21'8817.5
2015-Aug-16 12:33N 50°10' W 125°21'1010.0
2015-Aug-16 11:32N 50°01' W 125°13'1515.5
2015-Aug-16 10:33N 49°50' W 124°57'1717.0
2015-Aug-16 09:34N 49°38' W 124°38'1717.0
2015-Aug-16 08:33N 49°26' W 124°20'1616.4
2015-Aug-16 07:33N 49°21' W 123°56'1615.6
2015-Aug-16 06:33N 49°13' W 123°36'1717.0
2015-Aug-16 05:34N 49°01' W 123°17'1817.8
2015-Aug-16 04:33N 48°50' W 122°56'1817.6
2015-Aug-16 03:34N 48°38' W 122°36'6 5.7
2015-Aug-16 02:27N 48°43' W 122°31'0 0.0
2015-Aug-16 01:33N 48°43' W 122°31'0 0.0
2015-Aug-16 00:15N 48°43' W 122°31'0 0.0
2015-Aug-15 23:21N 48°43' W 122°31'0 0.0
2015-Aug-15 22:33N 48°43' W 122°31'0 0.0
2015-Aug-15 21:27N 48°43' W 122°31'0 0.0
2015-Aug-15 18:33N 48°43' W 122°31'0 0.0
2015-Aug-15 17:33N 48°43' W 122°31'0 0.0
2015-Aug-15 16:27N 48°43' W 122°31'0 0.0
2015-Aug-15 10:15N 48°43' W 122°31'0 0.0
2015-Aug-15 08:27N 48°43' W 122°31'0 0.0
2015-Aug-15 07:27N 48°43' W 122°31'0 0.0
2015-Aug-15 06:27N 48°43' W 122°31'0 0.0
2015-Aug-15 05:33N 48°43' W 122°31'0 0.0
2015-Aug-14 17:12N 48°43' W 122°31'0 0.0
2015-Aug-14 16:18N 48°43' W 122°31'0 0.0
2015-Aug-14 15:30N 48°43' W 122°31'1 0.7
2015-Aug-14 14:34N 48°43' W 122°32'8 7.8
2015-Aug-14 13:34N 48°40' W 122°42'1111.2
2015-Aug-14 12:33N 48°48' W 122°54'1211.6
2015-Aug-14 11:34N 48°54' W 123°08'1211.6
2015-Aug-14 10:34N 49°02' W 123°22'1211.6
2015-Aug-14 09:33N 49°11' W 123°34'1211.6
2015-Aug-14 08:34N 49°19' W 123°46'1111.1
2015-Aug-14 07:34N 49°23' W 124°02'1211.5
2015-Aug-14 06:34N 49°26' W 124°19'1111.5
2015-Aug-14 05:34N 49°34' W 124°32'1211.5
2015-Aug-14 04:33N 49°42' W 124°44'1211.6
2015-Aug-14 03:33N 49°50' W 124°57'1211.6
2015-Aug-14 02:33N 49°58' W 125°10'1110.7
2015-Aug-14 01:31N 50°07' W 125°20'6416.1
2015-Aug-13 21:33N 50°38' W 126°48'1919.0
2015-Aug-13 20:34N 50°50' W 127°12'1918.8
2015-Aug-13 19:33N 51°01' W 127°36'1818.1
2015-Aug-13 18:34N 51°16' W 127°52'44910.4
2015-Aug-11 23:18N 57°14' W 135°34'910.9
2015-Aug-11 22:29N 57°08' W 135°23'0 0.0
2015-Aug-11 21:33N 57°08' W 135°23'0 0.0
2015-Aug-11 20:33N 57°08' W 135°23'0 0.0
2015-Aug-11 19:33N 57°08' W 135°23'1 1.4
2015-Aug-11 18:33N 57°09' W 135°25'  
2015-Aug-08 19:15N 51°32' W 127°52'1215.5
2015-Aug-08 18:31N 51°20' W 127°52'1414.8
2015-Aug-08 17:33N 51°07' W 127°46'1515.2
2015-Aug-08 16:33N 50°57' W 127°28'1615.5
2015-Aug-08 15:33N 50°48' W 127°07'7715.3
2015-Aug-08 10:33N 50°11' W 125°22'1615.8
2015-Aug-08 09:33N 49°57' W 125°09'1717.0
2015-Aug-08 08:33N 49°46' W 124°50'1616.5
2015-Aug-08 07:33N 49°34' W 124°32'1616.0
2015-Aug-08 06:33N 49°25' W 124°12'1716.6
2015-Aug-08 05:34N 49°21' W 123°47'1616.5
2015-Aug-08 04:33N 49°09' W 123°29'1716.8
2015-Aug-08 03:33N 48°58' W 123°11'1717.1
2015-Aug-08 02:33N 48°47' W 122°50'1313.1
2015-Aug-08 01:33N 48°40' W 122°33'4 2.9
2015-Aug-08 00:16N 48°43' W 122°31'0 0.0
2015-Aug-07 23:10N 48°43' W 122°31'0 0.0
2015-Aug-07 22:10N 48°43' W 122°31'0 0.0
2015-Aug-07 21:10N 48°43' W 122°31'0 0.0
2015-Aug-07 14:33N 48°43' W 122°31'610.1
2015-Aug-07 14:00N 48°38' W 122°34'613.2
2015-Aug-07 13:34N 48°40' W 122°43'114.7
2015-Aug-07 13:30N 48°41' W 122°43'1515.2
2015-Aug-07 12:33N 48°50' W 123°00'1515.5
2015-Aug-07 11:33N 49°00' W 123°18'1615.7
2015-Aug-07 10:34N 49°11' W 123°35'1515.3
2015-Aug-07 09:34N 49°22' W 123°52'1615.7
2015-Aug-07 08:34N 49°25' W 124°16'1515.3
2015-Aug-07 07:33N 49°35' W 124°34'1615.8
2015-Aug-07 06:33N 49°46' W 124°51'1615.8
2015-Aug-07 05:33N 49°57' W 125°08'1312.9
2015-Aug-07 04:33N 50°07' W 125°21'7815.4
2015-Aug-06 23:28N 50°47' W 127°06'1516.7
2015-Aug-06 22:34N 50°56' W 127°26'1615.6
2015-Aug-06 21:33N 51°06' W 127°44'  
Track history (hours):
 
Tides and Currents Weather Stations Pressure Air Temp Water Temp Dewpoint Dewpoint Depression Visibility Wind Speed Wind Dir Waves Ship Positions

Columbia

Owner: ALASKA, STATE OF, ANCHORAGE, AK. More information available from US FCC via Universal Licensing System and Coast Guard Vessel Documentation Center.

Last reported at 2015-Aug-16 20:04 UTC. Time now 2015-Aug-31 15:19 UTC.
Position N 51°32' W 127°52'.
Warning: this ship's position is 14 days out of date.

Type: Ship. MMSI: 367144000.

Date/timePositionNaut miles runAvg speedWind from/ knotsBaromVisibWave heightAir tempDewpointWater temp
2015-Aug-16 20:04N 51°32' W 127°52'1018.7
2015-Aug-16 19:31N 51°22' W 127°52'1717.4
2015-Aug-16 18:33N 51°06' W 127°43'1818.3
2015-Aug-16 17:33N 50°54' W 127°21'8817.5
2015-Aug-16 12:33N 50°10' W 125°21'1010.0
2015-Aug-16 11:32N 50°01' W 125°13'1515.5
2015-Aug-16 10:33N 49°50' W 124°57'1717.0
2015-Aug-16 09:34N 49°38' W 124°38'1717.0
2015-Aug-16 08:33N 49°26' W 124°20'1616.4
2015-Aug-16 07:33N 49°21' W 123°56'1615.6
2015-Aug-16 06:33N 49°13' W 123°36'1717.0
2015-Aug-16 05:34N 49°01' W 123°17'1817.8
2015-Aug-16 04:33N 48°50' W 122°56'1817.6
2015-Aug-16 03:34N 48°38' W 122°36'6 5.7
2015-Aug-16 02:27N 48°43' W 122°31'0 0.0
2015-Aug-16 01:33N 48°43' W 122°31'0 0.0
2015-Aug-16 00:15N 48°43' W 122°31'0 0.0
2015-Aug-15 23:21N 48°43' W 122°31'0 0.0
2015-Aug-15 22:33N 48°43' W 122°31'0 0.0
2015-Aug-15 21:27N 48°43' W 122°31'0 0.0
2015-Aug-15 18:33N 48°43' W 122°31'0 0.0
2015-Aug-15 17:33N 48°43' W 122°31'0 0.0
2015-Aug-15 16:27N 48°43' W 122°31'0 0.0
2015-Aug-15 10:15N 48°43' W 122°31'0 0.0
2015-Aug-15 08:27N 48°43' W 122°31'0 0.0
2015-Aug-15 07:27N 48°43' W 122°31'0 0.0
2015-Aug-15 06:27N 48°43' W 122°31'0 0.0
2015-Aug-15 05:33N 48°43' W 122°31'0 0.0
2015-Aug-14 17:12N 48°43' W 122°31'0 0.0
2015-Aug-14 16:18N 48°43' W 122°31'0 0.0
2015-Aug-14 15:30N 48°43' W 122°31'1 0.7
2015-Aug-14 14:34N 48°43' W 122°32'8 7.8
2015-Aug-14 13:34N 48°40' W 122°42'1111.2
2015-Aug-14 12:33N 48°48' W 122°54'1211.6
2015-Aug-14 11:34N 48°54' W 123°08'1211.6
2015-Aug-14 10:34N 49°02' W 123°22'1211.6
2015-Aug-14 09:33N 49°11' W 123°34'1211.6
2015-Aug-14 08:34N 49°19' W 123°46'1111.1
2015-Aug-14 07:34N 49°23' W 124°02'1211.5
2015-Aug-14 06:34N 49°26' W 124°19'1111.5
2015-Aug-14 05:34N 49°34' W 124°32'1211.5
2015-Aug-14 04:33N 49°42' W 124°44'1211.6
2015-Aug-14 03:33N 49°50' W 124°57'1211.6
2015-Aug-14 02:33N 49°58' W 125°10'1110.7
2015-Aug-14 01:31N 50°07' W 125°20'6416.1
2015-Aug-13 21:33N 50°38' W 126°48'1919.0
2015-Aug-13 20:34N 50°50' W 127°12'1918.8
2015-Aug-13 19:33N 51°01' W 127°36'1818.1
2015-Aug-13 18:34N 51°16' W 127°52'44910.4
2015-Aug-11 23:18N 57°14' W 135°34'910.9
2015-Aug-11 22:29N 57°08' W 135°23'0 0.0
2015-Aug-11 21:33N 57°08' W 135°23'0 0.0
2015-Aug-11 20:33N 57°08' W 135°23'0 0.0
2015-Aug-11 19:33N 57°08' W 135°23'1 1.4
2015-Aug-11 18:33N 57°09' W 135°25'  
2015-Aug-08 19:15N 51°32' W 127°52'1215.5
2015-Aug-08 18:31N 51°20' W 127°52'1414.8
2015-Aug-08 17:33N 51°07' W 127°46'1515.2
2015-Aug-08 16:33N 50°57' W 127°28'1615.5
2015-Aug-08 15:33N 50°48' W 127°07'7715.3
2015-Aug-08 10:33N 50°11' W 125°22'1615.8
2015-Aug-08 09:33N 49°57' W 125°09'1717.0
2015-Aug-08 08:33N 49°46' W 124°50'1616.5
2015-Aug-08 07:33N 49°34' W 124°32'1616.0
2015-Aug-08 06:33N 49°25' W 124°12'1716.6
2015-Aug-08 05:34N 49°21' W 123°47'1616.5
2015-Aug-08 04:33N 49°09' W 123°29'1716.8
2015-Aug-08 03:33N 48°58' W 123°11'1717.1
2015-Aug-08 02:33N 48°47' W 122°50'1313.1
2015-Aug-08 01:33N 48°40' W 122°33'4 2.9
2015-Aug-08 00:16N 48°43' W 122°31'0 0.0
2015-Aug-07 23:10N 48°43' W 122°31'0 0.0
2015-Aug-07 22:10N 48°43' W 122°31'0 0.0
2015-Aug-07 21:10N 48°43' W 122°31'0 0.0
2015-Aug-07 14:33N 48°43' W 122°31'610.1
2015-Aug-07 14:00N 48°38' W 122°34'613.2
2015-Aug-07 13:34N 48°40' W 122°43'114.7
2015-Aug-07 13:30N 48°41' W 122°43'1515.2
2015-Aug-07 12:33N 48°50' W 123°00'1515.5
2015-Aug-07 11:33N 49°00' W 123°18'1615.7
2015-Aug-07 10:34N 49°11' W 123°35'1515.3
2015-Aug-07 09:34N 49°22' W 123°52'1615.7
2015-Aug-07 08:34N 49°25' W 124°16'1515.3
2015-Aug-07 07:33N 49°35' W 124°34'1615.8
2015-Aug-07 06:33N 49°46' W 124°51'1615.8
2015-Aug-07 05:33N 49°57' W 125°08'1312.9
2015-Aug-07 04:33N 50°07' W 125°21'7815.4
2015-Aug-06 23:28N 50°47' W 127°06'1516.7
2015-Aug-06 22:34N 50°56' W 127°26'1615.6
2015-Aug-06 21:33N 51°06' W 127°44'  

Dump ship's entire track history